Time;durP1;ratioP1;P1;durP2;ratioP2;P2;SDS_P1;SDS_P2;PMS_P1;PMS_P2;Temp;Humidity;BMP_temperature;BMP_pressure;BME280_temperature;BME280_humidity;BME280_pressure;Samples;Min_cycle;Max_cycle;Signal;HPM_P1;HPM_P2
2021/06/26 00:00:58;;;;;;;13.48;9.70;;;;;;;;;;1480082;40;20393;-63
2021/06/26 00:02:00;;;;;;;15.93;9.02;;;;;;;;;;1480346;40;20034;-63
2021/06/26 00:03:01;;;;;;;14.75;9.10;;;;;;;;;;1480159;40;20040;-63
2021/06/26 00:04:03;;;;;;;12.60;8.88;;;;;;;;;;1480264;40;20030;-63
2021/06/26 00:05:06;;;;;;;13.35;9.18;;;;;;;;;;1480417;40;20025;-63
2021/06/26 00:06:13;;;;;;;17.30;9.70;;;;;;;;;;1480390;40;20033;-64
2021/06/26 00:07:14;;;;;;;13.95;9.25;;;;;;;;;;1480409;40;20025;-63
2021/06/26 00:08:17;;;;;;;14.63;9.60;;;;;;;;;;1480185;40;20397;-63
2021/06/26 00:09:18;;;;;;;14.73;9.10;;;;;;;;;;1480174;40;20025;-63
2021/06/26 00:10:20;;;;;;;17.20;9.70;;;;;;;;;;1480477;40;20033;-64
2021/06/26 00:11:21;;;;;;;16.80;8.85;;;;;;;;;;1480086;40;20058;-63
2021/06/26 00:12:23;;;;;;;14.57;9.32;;;;;;;;;;1480124;40;20036;-63
2021/06/26 00:13:24;;;;;;;14.98;9.40;;;;;;;;;;1480116;40;20036;-63
2021/06/26 00:14:26;;;;;;;15.85;9.80;;;;;;;;;;1480382;40;20040;-63
2021/06/26 00:15:27;;;;;;;17.08;10.02;;;;;;;;;;1480214;40;20029;-63
2021/06/26 00:16:29;;;;;;;14.00;9.45;;;;;;;;;;1480353;40;20081;-63
2021/06/26 00:17:30;;;;;;;15.20;9.90;;;;;;;;;;1480098;40;20434;-63
2021/06/26 00:18:31;;;;;;;12.68;8.73;;;;;;;;;;1480335;40;20111;-63
2021/06/26 00:19:32;;;;;;;15.35;9.48;;;;;;;;;;1480384;40;20036;-63
2021/06/26 00:20:34;;;;;;;12.98;8.98;;;;;;;;;;1480757;40;20025;-63
2021/06/26 00:21:36;;;;;;;15.45;9.65;;;;;;;;;;1480733;40;20421;-63
2021/06/26 00:22:38;;;;;;;16.10;9.48;;;;;;;;;;1480753;40;20033;-63
2021/06/26 00:23:39;;;;;;;17.42;11.10;;;;;;;;;;1480895;40;20036;-64
2021/06/26 00:24:41;;;;;;;17.98;12.38;;;;;;;;;;1481114;40;20300;-63
2021/06/26 00:25:42;;;;;;;18.92;10.93;;;;;;;;;;1480859;40;20286;-63
2021/06/26 00:26:44;;;;;;;16.48;10.23;;;;;;;;;;1480966;40;20060;-63
2021/06/26 00:27:44;;;;;;;18.58;10.60;;;;;;;;;;1480935;40;20029;-64
2021/06/26 00:28:47;;;;;;;18.55;10.77;;;;;;;;;;1480783;40;20032;-64
2021/06/26 00:29:47;;;;;;;17.40;9.90;;;;;;;;;;1480848;40;20029;-64
2021/06/26 00:30:49;;;;;;;16.20;10.15;;;;;;;;;;1480917;40;20029;-64
2021/06/26 00:31:50;;;;;;;16.38;9.98;;;;;;;;;;1481040;40;20037;-64
2021/06/26 00:32:52;;;;;;;14.95;9.55;;;;;;;;;;1480993;40;20036;-64
2021/06/26 00:33:53;;;;;;;12.38;9.07;;;;;;;;;;1480738;40;20378;-64
2021/06/26 00:34:54;;;;;;;19.35;10.75;;;;;;;;;;1480750;40;20033;-63
2021/06/26 00:35:55;;;;;;;17.98;10.48;;;;;;;;;;1480698;40;20304;-63
2021/06/26 00:36:58;;;;;;;14.77;10.13;;;;;;;;;;1480885;40;20033;-64
2021/06/26 00:37:59;;;;;;;14.38;10.18;;;;;;;;;;1480711;40;20036;-63
2021/06/26 00:39:01;;;;;;;14.93;11.23;;;;;;;;;;1480951;40;20040;-63
2021/06/26 00:40:03;;;;;;;16.27;11.32;;;;;;;;;;1480785;40;20036;-64
2021/06/26 00:41:05;;;;;;;15.48;10.70;;;;;;;;;;1480890;40;20029;-64
2021/06/26 00:42:06;;;;;;;13.90;10.32;;;;;;;;;;1480984;40;20136;-64
2021/06/26 00:43:08;;;;;;;14.43;9.75;;;;;;;;;;1480784;40;20055;-64
2021/06/26 00:44:10;;;;;;;14.95;9.20;;;;;;;;;;1480870;40;20037;-64
2021/06/26 00:45:13;;;;;;;14.57;9.98;;;;;;;;;;1480796;40;20305;-63
2021/06/26 00:46:15;;;;;;;13.95;10.25;;;;;;;;;;1480872;40;20036;-63
2021/06/26 00:47:17;;;;;;;15.55;9.65;;;;;;;;;;1480821;40;20034;-64
2021/06/26 00:48:17;;;;;;;18.95;10.43;;;;;;;;;;1480777;40;20025;-63
2021/06/26 00:49:19;;;;;;;14.70;9.57;;;;;;;;;;1480897;40;20029;-64
2021/06/26 00:50:22;;;;;;;16.35;10.25;;;;;;;;;;1480787;40;20033;-64
2021/06/26 00:51:24;;;;;;;18.42;10.00;;;;;;;;;;1480735;40;20475;-63
2021/06/26 00:52:26;;;;;;;14.38;9.43;;;;;;;;;;1480715;40;20173;-64
2021/06/26 00:53:28;;;;;;;18.20;9.88;;;;;;;;;;1480847;40;20034;-63
2021/06/26 00:54:30;;;;;;;15.45;9.95;;;;;;;;;;1480667;40;20040;-64
2021/06/26 00:55:32;;;;;;;12.40;9.38;;;;;;;;;;1480950;40;20040;-63
2021/06/26 00:56:32;;;;;;;15.10;9.48;;;;;;;;;;1480659;40;20411;-63
2021/06/26 00:57:35;;;;;;;16.73;9.65;;;;;;;;;;1480759;40;20033;-63
2021/06/26 00:58:37;;;;;;;15.25;9.25;;;;;;;;;;1480927;40;20041;-63
2021/06/26 00:59:38;;;;;;;13.07;9.85;;;;;;;;;;1480624;40;20029;-64
2021/06/26 01:00:40;;;;;;;14.43;9.90;;;;;;;;;;1480877;40;20033;-64
2021/06/26 01:01:41;;;;;;;16.20;10.20;;;;;;;;;;1480641;40;20301;-64
2021/06/26 01:02:43;;;;;;;14.32;9.20;;;;;;;;;;1480688;40;20025;-63
2021/06/26 01:03:45;;;;;;;16.13;9.63;;;;;;;;;;1480707;40;20025;-64
2021/06/26 01:04:47;;;;;;;15.88;9.48;;;;;;;;;;1480997;40;20041;-64
2021/06/26 01:05:48;;;;;;;12.35;8.85;;;;;;;;;;1480697;40;20036;-63
2021/06/26 01:06:50;;;;;;;14.07;9.25;;;;;;;;;;1480910;40;20026;-63
2021/06/26 01:07:53;;;;;;;18.23;9.38;;;;;;;;;;1480941;40;20033;-64
2021/06/26 01:08:55;;;;;;;21.55;10.48;;;;;;;;;;1480651;40;20030;-63
2021/06/26 01:09:55;;;;;;;16.48;10.07;;;;;;;;;;1480691;40;20300;-63
2021/06/26 01:10:57;;;;;;;17.35;9.95;;;;;;;;;;1480860;40;20033;-64
2021/06/26 01:11:58;;;;;;;15.55;9.68;;;;;;;;;;1480957;40;20029;-64
2021/06/26 01:13:01;;;;;;;16.88;9.23;;;;;;;;;;1480671;40;20033;-64
2021/06/26 01:14:02;;;;;;;17.30;8.95;;;;;;;;;;1480605;40;20033;-64
2021/06/26 01:15:06;;;;;;;15.55;8.35;;;;;;;;;;1480732;40;20102;-63
2021/06/26 01:16:07;;;;;;;13.80;8.60;;;;;;;;;;1480568;40;20029;-63
2021/06/26 01:17:09;;;;;;;14.70;9.20;;;;;;;;;;1480926;40;20029;-63
2021/06/26 01:18:26;;;;;;;16.15;9.38;;;;;;;;;;1480712;40;20040;-63
2021/06/26 01:19:28;;;;;;;17.48;9.80;;;;;;;;;;1480651;40;20077;-64
2021/06/26 01:20:29;;;;;;;15.90;9.88;;;;;;;;;;1480802;40;20378;-64
2021/06/26 01:21:30;;;;;;;13.73;9.15;;;;;;;;;;1480752;40;20062;-63
2021/06/26 01:22:36;;;;;;;14.77;9.30;;;;;;;;;;1480725;40;20148;-64
2021/06/26 01:23:44;;;;;;;14.55;9.13;;;;;;;;;;1480600;40;20073;-63
2021/06/26 01:24:45;;;;;;;16.45;9.38;;;;;;;;;;1480718;40;20029;-63
2021/06/26 01:25:47;;;;;;;15.90;9.52;;;;;;;;;;1480661;40;20126;-64
2021/06/26 01:26:55;;;;;;;15.25;9.13;;;;;;;;;;1480881;40;20022;-63
2021/06/26 01:27:59;;;;;;;14.50;9.48;;;;;;;;;;1480942;40;20029;-63
2021/06/26 01:29:00;;;;;;;14.95;9.30;;;;;;;;;;1480750;40;20032;-63
2021/06/26 01:30:02;;;;;;;15.23;9.40;;;;;;;;;;1480728;40;20029;-63
2021/06/26 01:31:03;;;;;;;15.68;8.73;;;;;;;;;;1480310;40;20053;-64
2021/06/26 01:32:07;;;;;;;17.23;8.73;;;;;;;;;;1480749;40;20037;-63
2021/06/26 01:33:08;;;;;;;15.10;9.30;;;;;;;;;;1480787;40;20036;-63
2021/06/26 01:34:10;;;;;;;13.52;8.95;;;;;;;;;;1480153;40;20056;-63
2021/06/26 01:35:11;;;;;;;15.95;9.40;;;;;;;;;;1480051;40;20029;-64
2021/06/26 01:36:13;;;;;;;13.00;9.13;;;;;;;;;;1480799;40;20037;-63
2021/06/26 01:37:14;;;;;;;14.05;8.65;;;;;;;;;;1480548;40;20393;-63
2021/06/26 01:38:17;;;;;;;13.35;8.82;;;;;;;;;;1480779;40;20029;-63
2021/06/26 01:39:18;;;;;;;15.10;9.40;;;;;;;;;;1480579;40;20065;-64
2021/06/26 01:40:22;;;;;;;15.52;8.95;;;;;;;;;;1480569;40;20107;-64
2021/06/26 01:41:23;;;;;;;14.63;9.23;;;;;;;;;;1480492;40;20036;-64
2021/06/26 01:42:25;;;;;;;15.07;8.93;;;;;;;;;;1480736;40;20386;-64
2021/06/26 01:43:26;;;;;;;15.20;9.05;;;;;;;;;;1480715;40;20073;-64
2021/06/26 01:44:28;;;;;;;13.93;8.20;;;;;;;;;;1480795;40;20041;-63
2021/06/26 01:45:29;;;;;;;14.35;8.43;;;;;;;;;;1480753;40;20029;-64
2021/06/26 01:46:32;;;;;;;16.17;9.35;;;;;;;;;;1480794;40;20033;-64
2021/06/26 01:47:33;;;;;;;15.38;8.98;;;;;;;;;;1480517;40;20040;-64
2021/06/26 01:48:35;;;;;;;14.88;9.50;;;;;;;;;;1480598;40;20036;-63
2021/06/26 01:49:36;;;;;;;16.48;8.93;;;;;;;;;;1480526;40;20033;-63
2021/06/26 01:50:38;;;;;;;16.77;9.05;;;;;;;;;;1480562;40;20278;-63
2021/06/26 01:51:40;;;;;;;16.13;9.25;;;;;;;;;;1480701;40;20033;-63
2021/06/26 01:52:44;;;;;;;14.82;8.30;;;;;;;;;;1480819;40;20037;-63
2021/06/26 01:53:46;;;;;;;19.58;9.18;;;;;;;;;;1480679;40;20052;-63
2021/06/26 01:54:48;;;;;;;16.90;9.43;;;;;;;;;;1480863;40;20049;-64
2021/06/26 01:55:52;;;;;;;16.75;8.32;;;;;;;;;;1480589;40;20372;-63
2021/06/26 01:56:53;;;;;;;18.42;9.02;;;;;;;;;;1480504;40;20090;-63
2021/06/26 01:57:55;;;;;;;14.45;8.68;;;;;;;;;;1480676;40;20029;-63
2021/06/26 01:58:56;;;;;;;13.73;9.10;;;;;;;;;;1480749;40;20033;-64
2021/06/26 01:59:58;;;;;;;16.02;9.50;;;;;;;;;;1480697;40;20041;-63
2021/06/26 02:00:59;;;;;;;19.83;9.50;;;;;;;;;;1480712;40;20040;-63
2021/06/26 02:02:01;;;;;;;15.35;8.85;;;;;;;;;;1480638;40;20032;-63
2021/06/26 02:03:03;;;;;;;15.93;9.38;;;;;;;;;;1480690;40;20026;-64
2021/06/26 02:04:04;;;;;;;14.15;9.10;;;;;;;;;;1480487;40;20025;-63
2021/06/26 02:05:08;;;;;;;15.50;8.95;;;;;;;;;;1480802;40;20126;-64
2021/06/26 02:06:09;;;;;;;16.77;9.48;;;;;;;;;;1480460;40;20381;-64
2021/06/26 02:07:11;;;;;;;17.45;9.68;;;;;;;;;;1480570;40;20036;-64
2021/06/26 02:08:11;;;;;;;15.65;9.02;;;;;;;;;;1480549;40;20036;-64
2021/06/26 02:09:14;;;;;;;15.90;9.48;;;;;;;;;;1480746;40;20036;-64
2021/06/26 02:10:15;;;;;;;19.05;9.18;;;;;;;;;;1480457;40;20392;-64
2021/06/26 02:11:17;;;;;;;14.02;8.95;;;;;;;;;;1480530;40;20033;-63
2021/06/26 02:12:18;;;;;;;13.02;8.40;;;;;;;;;;1480743;40;20033;-64
2021/06/26 02:13:20;;;;;;;16.30;9.10;;;;;;;;;;1480560;40;20282;-64
2021/06/26 02:14:21;;;;;;;17.83;9.98;;;;;;;;;;1480541;40;20052;-64
2021/06/26 02:15:23;;;;;;;16.83;9.98;;;;;;;;;;1480684;40;20025;-64
2021/06/26 02:16:24;;;;;;;23.92;9.50;;;;;;;;;;1480464;40;20389;-64
2021/06/26 02:17:25;;;;;;;15.95;8.93;;;;;;;;;;1480600;40;20035;-63
2021/06/26 02:18:26;;;;;;;15.43;9.18;;;;;;;;;;1480647;40;20030;-63
2021/06/26 02:19:28;;;;;;;14.70;9.50;;;;;;;;;;1480444;40;20385;-63
2021/06/26 02:20:29;;;;;;;14.82;8.88;;;;;;;;;;1480515;40;20055;-64
2021/06/26 02:21:31;;;;;;;13.82;8.50;;;;;;;;;;1480673;40;20029;-63
2021/06/26 02:22:31;;;;;;;15.30;8.90;;;;;;;;;;1480534;40;20029;-64
2021/06/26 02:23:34;;;;;;;12.68;8.38;;;;;;;;;;1480565;40;20029;-64
2021/06/26 02:24:36;;;;;;;20.17;9.32;;;;;;;;;;1480413;40;20052;-64
2021/06/26 02:25:38;;;;;;;13.38;9.02;;;;;;;;;;1480539;40;20025;-64
2021/06/26 02:26:39;;;;;;;16.95;9.85;;;;;;;;;;1480458;40;20036;-64
2021/06/26 02:27:41;;;;;;;18.33;10.38;;;;;;;;;;1480684;40;20036;-63
2021/06/26 02:28:42;;;;;;;15.95;9.25;;;;;;;;;;1480389;40;20336;-64
2021/06/26 02:29:43;;;;;;;17.90;9.55;;;;;;;;;;1480466;40;20029;-64
2021/06/26 02:30:44;;;;;;;20.95;9.63;;;;;;;;;;1480359;40;20025;-64
2021/06/26 02:31:46;;;;;;;16.55;9.57;;;;;;;;;;1515087;22;20079;-63
2021/06/26 02:32:47;;;;;;;17.45;9.50;;;;;;;;;;1472318;40;20416;-61
2021/06/26 02:33:49;;;;;;;17.55;9.10;;;;;;;;;;1472285;40;20037;-60
2021/06/26 02:34:52;;;;;;;19.50;9.05;;;;;;;;;;1472343;40;20030;-61
2021/06/26 02:35:54;;;;;;;17.58;9.18;;;;;;;;;;1472298;40;20041;-62
2021/06/26 02:36:55;;;;;;;15.05;8.88;;;;;;;;;;1472433;40;20034;-60
2021/06/26 02:37:57;;;;;;;16.40;8.98;;;;;;;;;;1472288;40;20328;-60
2021/06/26 02:38:58;;;;;;;16.58;9.40;;;;;;;;;;1472310;40;20034;-60
2021/06/26 02:40:01;;;;;;;13.52;8.15;;;;;;;;;;1472158;40;20303;-60
2021/06/26 02:41:02;;;;;;;18.70;9.23;;;;;;;;;;1471714;40;20034;-60
2021/06/26 02:42:04;;;;;;;13.77;8.50;;;;;;;;;;1471732;40;20309;-60
2021/06/26 02:43:05;;;;;;;13.25;8.93;;;;;;;;;;1472363;40;20033;-60
2021/06/26 02:44:07;;;;;;;16.45;9.63;;;;;;;;;;1472412;40;20293;-60
2021/06/26 02:45:09;;;;;;;21.55;9.77;;;;;;;;;;1472331;40;20033;-60
2021/06/26 02:46:11;;;;;;;22.15;10.30;;;;;;;;;;1472220;40;20038;-61
2021/06/26 02:47:11;;;;;;;15.70;9.52;;;;;;;;;;1472190;40;20037;-61
2021/06/26 02:48:13;;;;;;;17.75;9.10;;;;;;;;;;1472282;40;20037;-60
2021/06/26 02:49:14;;;;;;;14.38;8.60;;;;;;;;;;1472418;40;20038;-60
2021/06/26 02:50:16;;;;;;;17.77;9.18;;;;;;;;;;1472297;40;20289;-60
2021/06/26 02:51:17;;;;;;;15.93;9.68;;;;;;;;;;1471689;40;20317;-61
2021/06/26 02:52:19;;;;;;;19.77;9.85;;;;;;;;;;1471653;40;20042;-60
2021/06/26 02:53:20;;;;;;;15.75;9.23;;;;;;;;;;1472104;40;20026;-60
2021/06/26 02:54:22;;;;;;;18.10;10.25;;;;;;;;;;1472406;40;20041;-62
2021/06/26 02:55:25;;;;;;;14.30;9.07;;;;;;;;;;1472137;40;20034;-62
2021/06/26 02:56:26;;;;;;;13.55;9.15;;;;;;;;;;1472309;40;20026;-60
2021/06/26 02:57:28;;;;;;;14.88;8.75;;;;;;;;;;1472405;40;20030;-62
2021/06/26 02:58:29;;;;;;;14.23;8.40;;;;;;;;;;1472375;40;20034;-60
2021/06/26 02:59:30;;;;;;;14.30;9.13;;;;;;;;;;1472291;40;20034;-60
2021/06/26 03:00:32;;;;;;;16.10;8.80;;;;;;;;;;1472092;40;20052;-60
2021/06/26 03:01:33;;;;;;;17.98;9.35;;;;;;;;;;1472383;40;20038;-61
2021/06/26 03:02:35;;;;;;;13.15;8.73;;;;;;;;;;1472279;40;20030;-61
2021/06/26 03:03:36;;;;;;;14.25;8.13;;;;;;;;;;1472238;40;20034;-60
2021/06/26 03:04:38;;;;;;;16.25;8.45;;;;;;;;;;1472196;40;20030;-62
2021/06/26 03:05:39;;;;;;;13.55;8.60;;;;;;;;;;1472244;40;20037;-62
2021/06/26 03:06:41;;;;;;;12.40;8.30;;;;;;;;;;1472134;40;20376;-60
2021/06/26 03:07:48;;;;;;;13.25;8.80;;;;;;;;;;1471610;40;20333;-62
2021/06/26 03:08:50;;;;;;;13.35;8.63;;;;;;;;;;1471908;40;20120;-60
2021/06/26 03:09:50;;;;;;;14.80;9.05;;;;;;;;;;1472043;40;20386;-60
2021/06/26 03:10:54;;;;;;;13.75;8.57;;;;;;;;;;1472253;40;20037;-62
2021/06/26 03:11:55;;;;;;;15.00;8.57;;;;;;;;;;1472213;40;20030;-62
2021/06/26 03:12:56;;;;;;;13.15;8.50;;;;;;;;;;1472401;40;20386;-60
2021/06/26 03:13:57;;;;;;;16.02;9.10;;;;;;;;;;1472371;40;20030;-60
2021/06/26 03:14:59;;;;;;;16.02;9.20;;;;;;;;;;1472203;40;20021;-60
2021/06/26 03:16:06;;;;;;;12.18;8.50;;;;;;;;;;1472068;40;20038;-61
2021/06/26 03:17:08;;;;;;;18.38;9.77;;;;;;;;;;1472278;40;20038;-61
2021/06/26 03:18:09;;;;;;;17.27;9.38;;;;;;;;;;1472160;40;20029;-60
2021/06/26 03:19:11;;;;;;;18.55;9.00;;;;;;;;;;1472244;40;20034;-61
2021/06/26 03:20:12;;;;;;;17.98;8.95;;;;;;;;;;1472025;40;20030;-61
2021/06/26 03:21:14;;;;;;;15.13;9.60;;;;;;;;;;1472121;40;20030;-61
2021/06/26 03:22:15;;;;;;;15.35;8.88;;;;;;;;;;1471984;40;20081;-59
2021/06/26 03:23:17;;;;;;;18.65;9.20;;;;;;;;;;1472115;40;20034;-60
2021/06/26 03:24:18;;;;;;;20.95;9.20;;;;;;;;;;1472217;40;20037;-61
2021/06/26 03:25:20;;;;;;;14.68;8.75;;;;;;;;;;1472045;40;20381;-60
2021/06/26 03:26:22;;;;;;;15.65;9.57;;;;;;;;;;1472122;40;20030;-60
2021/06/26 03:27:24;;;;;;;16.83;8.82;;;;;;;;;;1472214;40;20149;-60
2021/06/26 03:28:25;;;;;;;16.65;9.05;;;;;;;;;;1472064;40;20051;-61
2021/06/26 03:29:27;;;;;;;14.13;9.10;;;;;;;;;;1472121;40;20037;-61
2021/06/26 03:30:27;;;;;;;18.92;9.40;;;;;;;;;;1471980;40;20062;-60
2021/06/26 03:31:29;;;;;;;16.30;8.98;;;;;;;;;;1471942;40;20045;-61
2021/06/26 03:32:30;;;;;;;20.35;10.02;;;;;;;;;;1472044;40;20432;-60
2021/06/26 03:33:32;;;;;;;16.45;9.45;;;;;;;;;;1472237;40;20045;-60
2021/06/26 03:34:33;;;;;;;16.98;9.60;;;;;;;;;;1472291;40;20030;-60
2021/06/26 03:35:35;;;;;;;14.60;9.35;;;;;;;;;;1472155;40;20048;-60
2021/06/26 03:36:37;;;;;;;18.17;10.52;;;;;;;;;;1472069;40;20036;-60
2021/06/26 03:37:38;;;;;;;16.77;9.90;;;;;;;;;;1472045;40;20046;-60
2021/06/26 03:38:40;;;;;;;18.35;9.63;;;;;;;;;;1472155;40;20026;-62
2021/06/26 03:39:41;;;;;;;15.05;9.95;;;;;;;;;;1472039;40;20090;-62
2021/06/26 03:40:43;;;;;;;15.35;9.25;;;;;;;;;;1472263;40;20041;-61
2021/06/26 03:41:45;;;;;;;17.25;9.32;;;;;;;;;;1471969;40;20026;-60
2021/06/26 03:42:47;;;;;;;16.25;9.50;;;;;;;;;;1472086;40;20030;-60
2021/06/26 03:43:48;;;;;;;13.85;8.85;;;;;;;;;;1471998;40;20491;-59
2021/06/26 03:44:50;;;;;;;13.27;8.55;;;;;;;;;;1472200;40;20030;-61
2021/06/26 03:45:50;;;;;;;15.48;9.15;;;;;;;;;;1472128;40;20032;-61
2021/06/26 03:46:52;;;;;;;14.65;9.00;;;;;;;;;;1471954;40;20030;-60
2021/06/26 03:47:53;;;;;;;16.15;9.10;;;;;;;;;;1472149;40;20037;-61
2021/06/26 03:48:55;;;;;;;15.75;8.60;;;;;;;;;;1471990;40;20301;-61
2021/06/26 03:49:56;;;;;;;11.98;8.00;;;;;;;;;;1471994;40;20086;-61
2021/06/26 03:50:59;;;;;;;14.82;9.32;;;;;;;;;;1472001;40;20102;-61
2021/06/26 03:52:00;;;;;;;16.80;9.95;;;;;;;;;;1472154;40;20041;-60
2021/06/26 03:53:02;;;;;;;17.02;9.02;;;;;;;;;;1472102;40;20418;-60
2021/06/26 03:54:03;;;;;;;17.73;9.98;;;;;;;;;;1471785;40;20294;-59
2021/06/26 03:55:07;;;;;;;14.50;9.18;;;;;;;;;;1472050;40;20040;-59
2021/06/26 03:56:08;;;;;;;18.33;8.82;;;;;;;;;;1471916;40;20389;-61
2021/06/26 03:57:11;;;;;;;14.60;8.68;;;;;;;;;;1472284;40;20022;-61
2021/06/26 03:58:12;;;;;;;14.18;8.75;;;;;;;;;;1471937;40;20033;-62
2021/06/26 03:59:14;;;;;;;16.20;8.27;;;;;;;;;;1471996;40;20037;-59
2021/06/26 04:00:17;;;;;;;12.90;8.65;;;;;;;;;;1472297;40;20026;-59
2021/06/26 04:01:19;;;;;;;11.85;8.32;;;;;;;;;;1472010;40;20310;-58
2021/06/26 04:02:20;;;;;;;17.73;8.60;;;;;;;;;;1471876;40;20124;-58
2021/06/26 04:03:22;;;;;;;13.02;7.93;;;;;;;;;;1471963;40;20116;-59
2021/06/26 04:04:22;;;;;;;13.75;8.13;;;;;;;;;;1472055;40;20030;-61
2021/06/26 04:05:24;;;;;;;16.17;8.48;;;;;;;;;;1471961;40;20042;-59
2021/06/26 04:06:25;;;;;;;14.68;8.55;;;;;;;;;;1471906;40;20038;-59
2021/06/26 04:07:29;;;;;;;15.23;8.85;;;;;;;;;;1472195;40;20116;-61
2021/06/26 04:08:30;;;;;;;19.92;8.63;;;;;;;;;;1471931;40;20122;-59
2021/06/26 04:09:32;;;;;;;17.52;8.40;;;;;;;;;;1472051;40;20034;-59
2021/06/26 04:10:33;;;;;;;17.60;8.93;;;;;;;;;;1471903;40;20033;-59
2021/06/26 04:11:35;;;;;;;13.50;7.93;;;;;;;;;;1471865;40;20433;-61
2021/06/26 04:12:37;;;;;;;14.45;8.32;;;;;;;;;;1471887;40;20131;-59
2021/06/26 04:13:39;;;;;;;16.27;8.00;;;;;;;;;;1472203;40;20041;-60
2021/06/26 04:14:40;;;;;;;16.08;8.32;;;;;;;;;;1471864;40;20038;-58
2021/06/26 04:15:41;;;;;;;15.75;7.97;;;;;;;;;;1472040;40;20026;-58
2021/06/26 04:16:42;;;;;;;15.68;8.63;;;;;;;;;;1471864;40;20034;-61
2021/06/26 04:17:44;;;;;;;14.82;8.50;;;;;;;;;;1472085;40;20030;-61
2021/06/26 04:18:45;;;;;;;14.25;7.90;;;;;;;;;;1471842;40;20398;-58
2021/06/26 04:19:47;;;;;;;15.27;8.15;;;;;;;;;;1471897;40;20022;-61
2021/06/26 04:20:48;;;;;;;15.32;8.52;;;;;;;;;;1471998;40;20022;-59
2021/06/26 04:21:50;;;;;;;15.02;8.50;;;;;;;;;;1472084;40;20034;-58
2021/06/26 04:22:51;;;;;;;14.18;8.40;;;;;;;;;;1472076;40;20036;-59
2021/06/26 04:23:52;;;;;;;15.05;8.15;;;;;;;;;;1471898;40;20112;-59
2021/06/26 04:24:53;;;;;;;15.18;8.57;;;;;;;;;;1471874;40;20034;-59
2021/06/26 04:25:55;;;;;;;11.90;8.18;;;;;;;;;;1472066;40;20389;-61
2021/06/26 04:26:56;;;;;;;13.10;8.23;;;;;;;;;;1472129;40;20030;-59
2021/06/26 04:28:07;;;;;;;14.07;7.63;;;;;;;;;;1471868;40;20376;-61
2021/06/26 04:29:08;;;;;;;11.38;7.82;;;;;;;;;;1471861;40;20023;-61
2021/06/26 04:30:11;;;;;;;23.38;8.45;;;;;;;;;;1472034;40;20285;-59
2021/06/26 04:31:12;;;;;;;13.20;8.20;;;;;;;;;;1471863;40;20034;-61
2021/06/26 04:32:15;;;;;;;14.60;7.72;;;;;;;;;;1471999;40;20045;-60
2021/06/26 04:33:16;;;;;;;18.30;9.15;;;;;;;;;;1471837;40;20387;-61
2021/06/26 04:34:19;;;;;;;15.32;9.07;;;;;;;;;;1471823;40;20034;-60
2021/06/26 04:35:21;;;;;;;14.25;7.75;;;;;;;;;;1471837;40;20309;-59
2021/06/26 04:36:23;;;;;;;15.02;7.93;;;;;;;;;;1471926;40;20372;-61
2021/06/26 04:37:23;;;;;;;16.38;7.85;;;;;;;;;;1471989;40;20030;-61
2021/06/26 04:38:25;;;;;;;13.00;8.43;;;;;;;;;;1471899;40;20437;-60
2021/06/26 04:39:26;;;;;;;13.23;8.10;;;;;;;;;;1471822;40;20026;-60
2021/06/26 04:40:28;;;;;;;16.58;9.30;;;;;;;;;;1471864;40;20483;-61
2021/06/26 04:41:29;;;;;;;14.48;8.05;;;;;;;;;;1472106;40;20041;-59
2021/06/26 04:42:31;;;;;;;12.68;7.50;;;;;;;;;;1472020;40;20297;-59
2021/06/26 04:43:34;;;;;;;15.40;8.70;;;;;;;;;;1471819;40;20445;-59
2021/06/26 04:44:36;;;;;;;15.55;8.38;;;;;;;;;;1471380;40;20030;-62
2021/06/26 04:45:37;;;;;;;11.68;8.07;;;;;;;;;;1471315;40;20116;-61
2021/06/26 04:46:39;;;;;;;13.73;8.18;;;;;;;;;;1471878;40;20042;-59
2021/06/26 04:47:40;;;;;;;13.20;8.13;;;;;;;;;;1471749;40;20030;-59
2021/06/26 04:48:44;;;;;;;15.10;7.82;;;;;;;;;;1471841;40;20026;-61
2021/06/26 04:49:45;;;;;;;12.43;8.07;;;;;;;;;;1471928;40;20030;-59
2021/06/26 04:50:47;;;;;;;13.73;8.52;;;;;;;;;;1471888;40;20037;-59
2021/06/26 04:51:48;;;;;;;13.27;7.65;;;;;;;;;;1471929;40;20115;-59
2021/06/26 04:52:49;;;;;;;12.88;8.13;;;;;;;;;;1471892;40;20030;-61
2021/06/26 04:53:51;;;;;;;11.25;7.82;;;;;;;;;;1471856;40;20026;-61
2021/06/26 04:54:53;;;;;;;11.93;7.78;;;;;;;;;;1471871;40;20059;-59
2021/06/26 04:55:53;;;;;;;14.18;8.55;;;;;;;;;;1471906;40;20034;-61
2021/06/26 04:56:55;;;;;;;11.25;8.00;;;;;;;;;;1471843;40;20388;-60
2021/06/26 04:57:56;;;;;;;11.82;7.40;;;;;;;;;;1471980;40;20030;-61
2021/06/26 04:58:59;;;;;;;11.55;8.20;;;;;;;;;;1471948;40;20479;-61
2021/06/26 05:00:00;;;;;;;14.65;8.07;;;;;;;;;;1472010;40;20041;-59
2021/06/26 05:01:03;;;;;;;12.98;8.10;;;;;;;;;;1471876;40;20030;-59
2021/06/26 05:02:04;;;;;;;12.52;7.65;;;;;;;;;;1471734;40;20420;-61
2021/06/26 05:03:07;;;;;;;13.63;8.57;;;;;;;;;;1471727;40;20037;-60
2021/06/26 05:04:07;;;;;;;13.57;8.38;;;;;;;;;;1471906;40;20115;-61
2021/06/26 05:05:10;;;;;;;14.00;9.15;;;;;;;;;;1471914;40;20120;-61
2021/06/26 05:06:11;;;;;;;16.63;8.77;;;;;;;;;;1471795;40;20030;-61
2021/06/26 05:07:13;;;;;;;19.15;8.82;;;;;;;;;;1472397;40;20092;-59
2021/06/26 05:08:14;;;;;;;15.57;8.50;;;;;;;;;;1472389;40;20041;-61
2021/06/26 05:09:16;;;;;;;18.88;8.38;;;;;;;;;;1472663;40;20037;-59
2021/06/26 05:10:16;;;;;;;14.30;8.57;;;;;;;;;;1472396;40;20386;-61
2021/06/26 05:11:18;;;;;;;14.25;8.32;;;;;;;;;;1472553;40;20041;-60
2021/06/26 05:12:19;;;;;;;18.38;8.55;;;;;;;;;;1472539;40;20041;-61
2021/06/26 05:13:21;;;;;;;14.60;8.23;;;;;;;;;;1472430;40;20403;-61
2021/06/26 05:14:23;;;;;;;16.75;7.70;;;;;;;;;;1472476;40;20295;-61
2021/06/26 05:15:27;;;;;;;15.55;8.38;;;;;;;;;;1472625;40;20034;-61
2021/06/26 05:16:28;;;;;;;17.95;8.00;;;;;;;;;;1472646;40;20082;-61
2021/06/26 05:17:30;;;;;;;15.38;8.13;;;;;;;;;;1472620;40;20056;-61
2021/06/26 05:18:30;;;;;;;13.68;7.57;;;;;;;;;;1472352;40;20409;-61
2021/06/26 05:19:32;;;;;;;14.07;8.68;;;;;;;;;;1472507;40;20034;-61
2021/06/26 05:20:33;;;;;;;12.45;7.65;;;;;;;;;;1472381;40;20321;-61
2021/06/26 05:21:35;;;;;;;15.75;8.00;;;;;;;;;;1472370;40;20026;-60
2021/06/26 05:22:36;;;;;;;13.82;7.68;;;;;;;;;;1472033;40;20046;-57
2021/06/26 05:23:38;;;;;;;12.48;7.72;;;;;;;;;;1471905;40;20030;-59
2021/06/26 05:24:39;;;;;;;14.70;8.25;;;;;;;;;;1472071;40;20034;-57
2021/06/26 05:25:41;;;;;;;13.73;8.35;;;;;;;;;;1471825;40;20038;-57
2021/06/26 05:26:42;;;;;;;16.40;8.80;;;;;;;;;;1472403;40;20030;-57
2021/06/26 05:27:44;;;;;;;16.05;9.88;;;;;;;;;;1472636;40;20041;-57
2021/06/26 05:28:46;;;;;;;16.55;8.43;;;;;;;;;;1472628;40;20113;-57
2021/06/26 05:29:49;;;;;;;16.17;9.10;;;;;;;;;;1472536;40;20362;-57
2021/06/26 05:30:50;;;;;;;15.68;8.55;;;;;;;;;;1472556;40;20078;-57
2021/06/26 05:31:52;;;;;;;15.27;8.98;;;;;;;;;;1472376;40;20038;-58
2021/06/26 05:32:53;;;;;;;18.00;8.88;;;;;;;;;;1472524;40;20033;-57
2021/06/26 05:33:55;;;;;;;15.98;8.43;;;;;;;;;;1472525;40;20060;-57
2021/06/26 05:34:56;;;;;;;17.10;9.43;;;;;;;;;;1472328;40;20037;-58
2021/06/26 05:35:57;;;;;;;19.42;8.50;;;;;;;;;;1472564;40;20030;-58
2021/06/26 05:36:58;;;;;;;12.10;7.78;;;;;;;;;;1472357;40;20030;-57
2021/06/26 05:38:00;;;;;;;17.50;8.70;;;;;;;;;;1472525;40;20041;-59
2021/06/26 05:39:03;;;;;;;17.48;9.10;;;;;;;;;;1472324;40;20074;-57
2021/06/26 05:40:07;;;;;;;19.35;9.88;;;;;;;;;;1472377;40;20283;-59
2021/06/26 05:41:08;;;;;;;15.13;8.70;;;;;;;;;;1472528;40;20034;-57
2021/06/26 05:42:10;;;;;;;15.45;8.20;;;;;;;;;;1472284;40;20409;-60
2021/06/26 05:43:12;;;;;;;14.77;7.95;;;;;;;;;;1472500;40;20037;-57
2021/06/26 05:44:14;;;;;;;15.32;8.00;;;;;;;;;;1472373;40;20310;-57
2021/06/26 05:45:16;;;;;;;13.25;8.35;;;;;;;;;;1472494;40;20033;-57
2021/06/26 05:46:18;;;;;;;15.77;7.93;;;;;;;;;;1472453;40;20078;-57
2021/06/26 05:47:18;;;;;;;15.30;8.80;;;;;;;;;;1472310;40;20393;-58
2021/06/26 05:48:20;;;;;;;19.42;9.52;;;;;;;;;;1472489;40;20038;-57
2021/06/26 05:49:21;;;;;;;14.30;9.15;;;;;;;;;;1472292;40;20141;-57
2021/06/26 05:50:23;;;;;;;16.63;9.43;;;;;;;;;;1472323;40;20143;-57
2021/06/26 05:51:24;;;;;;;15.77;9.63;;;;;;;;;;1472210;40;20467;-57
2021/06/26 05:52:26;;;;;;;17.45;9.50;;;;;;;;;;1472447;40;20042;-58
2021/06/26 05:53:27;;;;;;;16.35;9.38;;;;;;;;;;1472456;40;20033;-58
2021/06/26 05:54:29;;;;;;;15.25;9.32;;;;;;;;;;1472333;40;20026;-57
2021/06/26 05:55:30;;;;;;;18.67;9.02;;;;;;;;;;1472411;40;20026;-57
2021/06/26 05:56:32;;;;;;;16.73;9.07;;;;;;;;;;1472575;40;20037;-58
2021/06/26 05:57:32;;;;;;;17.25;9.68;;;;;;;;;;1472376;40;20026;-57
2021/06/26 05:58:36;;;;;;;18.52;10.20;;;;;;;;;;1472351;40;20037;-57
2021/06/26 05:59:37;;;;;;;17.02;9.90;;;;;;;;;;1472367;40;20030;-58
2021/06/26 06:00:40;;;;;;;16.77;9.57;;;;;;;;;;1472372;40;20038;-59
2021/06/26 06:01:41;;;;;;;16.55;9.98;;;;;;;;;;1472379;40;20039;-60
2021/06/26 06:02:43;;;;;;;16.20;9.50;;;;;;;;;;1472462;40;20366;-59
2021/06/26 06:03:46;;;;;;;18.08;10.70;;;;;;;;;;1472292;40;20030;-58
2021/06/26 06:04:48;;;;;;;16.48;10.07;;;;;;;;;;1472485;40;20030;-60